Time;durP1;ratioP1;P1;durP2;ratioP2;P2;SDS_P1;SDS_P2;PMS_P1;PMS_P2;Temp;Humidity;BMP_temperature;BMP_pressure;BME280_temperature;BME280_humidity;BME280_pressure;Samples;Min_cycle;Max_cycle;Signal;HPM_P1;HPM_P2
2022/11/19 00:01:58;;;;;;;4.57;3.97;;;-0.10;99.90;;;;;;5050084;28;20396;-61
2022/11/19 00:04:24;;;;;;;4.73;3.70;;;0.00;99.90;;;;;;5061269;28;20234;-60
2022/11/19 00:06:51;;;;;;;7.23;4.53;;;0.00;99.90;;;;;;5049416;28;20230;-60
2022/11/19 00:09:18;;;;;;;7.33;4.73;;;0.00;99.90;;;;;;5071266;28;20201;-61
2022/11/19 00:14:31;;;;;;;8.30;4.40;;;0.00;99.90;;;;;;5072797;28;20628;-60
2022/11/19 00:16:58;;;;;;;6.87;4.10;;;-0.10;99.90;;;;;;5056787;28;20433;-61
2022/11/19 00:19:24;;;;;;;6.90;4.00;;;0.00;99.90;;;;;;5087685;28;20219;-60
2022/11/19 00:21:51;;;;;;;6.20;4.33;;;-0.10;99.90;;;;;;5051810;28;20212;-60
2022/11/19 00:24:18;;;;;;;5.13;3.90;;;-0.20;99.90;;;;;;5074154;28;20204;-60
2022/11/19 00:26:45;;;;;;;7.23;4.83;;;-0.20;99.90;;;;;;5065846;28;20215;-61
2022/11/19 00:29:12;;;;;;;10.90;3.87;;;-0.10;99.90;;;;;;5066351;28;20206;-60
2022/11/19 00:31:40;;;;;;;4.00;3.40;;;-0.30;99.90;;;;;;5056864;28;20206;-61
2022/11/19 00:34:06;;;;;;;5.27;4.03;;;-0.30;99.90;;;;;;5072200;28;20252;-61
2022/11/19 00:36:33;;;;;;;6.13;4.40;;;-0.20;99.90;;;;;;5078281;28;20541;-61
2022/11/19 00:39:00;;;;;;;5.57;4.07;;;-0.30;99.90;;;;;;5040012;28;20801;-61
2022/11/19 00:41:27;;;;;;;6.50;4.07;;;-0.30;99.90;;;;;;5086435;28;20449;-61
2022/11/19 00:43:54;;;;;;;6.00;4.47;;;-0.20;99.90;;;;;;5073832;28;20404;-61
2022/11/19 00:46:22;;;;;;;5.43;3.87;;;-0.30;99.90;;;;;;5072541;28;20776;-60
2022/11/19 00:48:52;;;;;;;5.53;4.23;;;-0.30;99.90;;;;;;5051068;28;20203;-60
2022/11/19 00:51:20;;;;;;;4.97;4.10;;;-0.30;99.90;;;;;;5089523;28;20195;-60
2022/11/19 00:53:47;;;;;;;7.30;4.40;;;-0.30;99.90;;;;;;5047012;28;20248;-60
2022/11/19 00:56:16;;;;;;;4.67;4.10;;;-0.40;99.90;;;;;;5082226;28;20199;-60
2022/11/19 00:58:43;;;;;;;6.30;3.97;;;-0.30;99.90;;;;;;5064192;28;20215;-61
2022/11/19 01:01:11;;;;;;;8.60;4.27;;;-0.40;99.90;;;;;;5062600;28;20222;-60
2022/11/19 01:03:39;;;;;;;5.13;3.83;;;-0.30;99.90;;;;;;5079679;28;20230;-60
2022/11/19 01:06:08;;;;;;;6.93;4.17;;;-0.30;99.90;;;;;;5075904;28;20233;-60
2022/11/19 01:08:35;;;;;;;6.27;4.03;;;-0.20;99.90;;;;;;5059292;28;20210;-60
2022/11/19 01:11:06;;;;;;;6.93;4.60;;;-0.30;99.90;;;;;;5074368;28;20204;-61
2022/11/19 01:13:34;;;;;;;6.67;4.50;;;-0.30;99.90;;;;;;5088322;28;20192;-61
2022/11/19 01:16:01;;;;;;;5.10;3.53;;;-0.30;99.90;;;;;;5077107;28;20212;-60
2022/11/19 01:18:28;;;;;;;4.60;3.57;;;-0.40;99.90;;;;;;5065500;28;20204;-60
2022/11/19 01:20:55;;;;;;;10.73;4.17;;;-0.40;99.90;;;;;;5079089;28;20736;-61
2022/11/19 01:23:23;;;;;;;6.70;4.17;;;-0.30;99.90;;;;;;5058917;28;20216;-61
2022/11/19 01:25:50;;;;;;;5.80;3.67;;;-0.40;99.90;;;;;;5079515;28;21377;-61
2022/11/19 01:28:17;;;;;;;5.60;4.07;;;-0.50;99.90;;;;;;5089487;28;20589;-60
2022/11/19 01:30:44;;;;;;;6.13;3.87;;;-0.50;99.90;;;;;;5077801;28;20204;-61
2022/11/19 01:33:11;;;;;;;6.20;3.90;;;-0.40;99.90;;;;;;5079388;28;20198;-60
2022/11/19 01:35:38;;;;;;;7.13;3.63;;;-0.50;99.90;;;;;;5071336;28;20206;-61
2022/11/19 01:38:05;;;;;;;5.57;3.83;;;-0.40;99.90;;;;;;5091427;28;20202;-61
2022/11/19 01:40:42;;;;;;;4.70;3.73;;;-0.40;99.90;;;;;;5042393;28;20208;-61
2022/11/19 01:43:10;;;;;;;7.40;4.03;;;-0.40;99.90;;;;;;5090906;28;20204;-60
2022/11/19 01:45:40;;;;;;;6.83;4.00;;;-0.40;99.90;;;;;;5073602;28;20207;-61
2022/11/19 01:48:12;;;;;;;3.83;3.17;;;-0.40;99.90;;;;;;5091037;28;20228;-61
2022/11/19 01:50:44;;;;;;;6.23;3.80;;;-0.40;99.90;;;;;;5064188;28;23378;-61
2022/11/19 01:53:12;;;;;;;4.90;3.27;;;-0.40;99.90;;;;;;5090038;28;20670;-60
2022/11/19 01:55:42;;;;;;;5.10;3.80;;;-0.40;99.90;;;;;;5053990;28;20221;-61
2022/11/19 01:58:11;;;;;;;5.07;3.40;;;-0.60;99.90;;;;;;5073805;28;20200;-60
2022/11/19 02:00:38;;;;;;;5.10;3.50;;;-0.60;99.90;;;;;;5067180;28;20283;-61
2022/11/19 02:03:05;;;;;;;8.60;3.80;;;-0.60;99.90;;;;;;5088489;28;20648;-61
2022/11/19 02:05:32;;;;;;;10.40;4.57;;;-0.60;99.90;;;;;;5073524;28;20219;-60
2022/11/19 02:07:59;;;;;;;4.97;3.83;;;-0.50;99.90;;;;;;5075528;28;20221;-60
2022/11/19 02:10:32;;;;;;;5.27;3.67;;;-0.50;99.90;;;;;;5058332;28;20208;-60
2022/11/19 02:13:07;;;;;;;4.20;3.37;;;-0.60;99.90;;;;;;5073239;28;20281;-60
2022/11/19 02:15:45;;;;;;;4.60;3.40;;;-0.60;99.90;;;;;;5088929;28;20199;-60
2022/11/19 02:18:38;;;;;;;4.77;3.73;;;-0.50;99.90;;;;;;5082926;28;20208;-60
2022/11/19 02:21:18;;;;;;;5.77;3.83;;;-0.50;99.90;;;;;;5077364;28;20226;-60
2022/11/19 02:24:01;;;;;;;5.97;4.07;;;-0.50;99.90;;;;;;5073457;28;20214;-61
2022/11/19 02:27:13;;;;;;;5.07;3.60;;;-0.60;99.90;;;;;;5056574;28;20211;-60
2022/11/19 02:30:06;;;;;;;6.27;3.97;;;-0.70;99.90;;;;;;5076802;28;20208;-60
2022/11/19 02:32:35;;;;;;;7.20;3.67;;;-0.80;99.90;;;;;;5077267;28;20200;-60
2022/11/19 02:35:09;;;;;;;6.23;3.80;;;-0.90;99.90;;;;;;5075666;28;20215;-60
2022/11/19 02:37:43;;;;;;;8.17;4.00;;;-0.90;99.90;;;;;;5087002;28;20577;-60
2022/11/19 02:40:14;;;;;;;8.57;4.20;;;-1.00;99.90;;;;;;5081256;28;20246;-60
2022/11/19 02:42:50;;;;;;;4.80;3.70;;;-0.90;99.90;;;;;;5053689;28;20566;-62
2022/11/19 02:45:23;;;;;;;5.43;3.83;;;-1.00;99.90;;;;;;5086807;28;20195;-60
2022/11/19 02:47:53;;;;;;;4.83;3.63;;;-1.00;99.90;;;;;;5074226;28;20219;-60
2022/11/19 02:50:24;;;;;;;6.70;3.73;;;-1.10;99.90;;;;;;5074940;28;22657;-60
2022/11/19 02:52:52;;;;;;;5.77;3.77;;;-1.10;99.90;;;;;;5074655;28;20212;-61
2022/11/19 02:55:21;;;;;;;7.43;4.30;;;-1.20;99.90;;;;;;5087374;28;20948;-60
2022/11/19 02:57:53;;;;;;;7.27;4.90;;;-1.20;99.90;;;;;;5055594;28;20201;-60
2022/11/19 03:05:59;;;;;;;5.70;4.40;;;-1.20;99.90;;;;;;5073060;28;20235;-60
2022/11/19 03:08:27;;;;;;;6.77;4.57;;;-1.30;99.90;;;;;;5074765;28;20227;-60
2022/11/19 03:11:06;;;;;;;7.17;4.20;;;-1.30;99.90;;;;;;5089095;28;20888;-60
2022/11/19 03:16:41;;;;;;;7.43;3.87;;;-1.40;99.90;;;;;;5078885;28;20212;-60
2022/11/19 03:19:14;;;;;;;6.30;4.37;;;-1.30;99.90;;;;;;5073543;28;20203;-60
2022/11/19 03:21:47;;;;;;;5.60;4.10;;;-1.30;99.90;;;;;;5073958;28;20667;-61
2022/11/19 03:24:17;;;;;;;5.63;3.67;;;-1.20;99.90;;;;;;5071703;28;20212;-60
2022/11/19 03:26:49;;;;;;;8.10;4.73;;;-1.30;99.90;;;;;;5057177;28;20210;-60
2022/11/19 03:29:16;;;;;;;9.77;4.40;;;-1.30;99.90;;;;;;5083800;28;20200;-60
2022/11/19 03:31:50;;;;;;;5.73;3.73;;;-1.40;99.90;;;;;;5075989;28;20200;-60
2022/11/19 03:34:21;;;;;;;6.27;4.27;;;-1.40;99.90;;;;;;5065063;28;20222;-60
2022/11/19 03:36:52;;;;;;;5.30;4.20;;;-1.40;99.90;;;;;;5065197;28;20246;-60
2022/11/19 03:39:21;;;;;;;5.67;4.17;;;-1.40;99.90;;;;;;5072404;28;20210;-61
2022/11/19 03:41:50;;;;;;;6.63;3.80;;;-1.50;99.90;;;;;;5073289;28;20207;-60
2022/11/19 03:44:22;;;;;;;6.83;3.87;;;-1.50;99.90;;;;;;5055884;28;20214;-60
2022/11/19 03:46:57;;;;;;;8.90;4.03;;;-1.50;99.90;;;;;;5074373;28;20205;-60
2022/11/19 03:49:30;;;;;;;6.47;3.63;;;-1.60;99.90;;;;;;5072578;28;20198;-60
2022/11/19 03:52:02;;;;;;;7.90;3.90;;;-1.60;99.90;;;;;;5074053;28;20203;-60
2022/11/19 03:54:29;;;;;;;6.23;4.00;;;-1.60;99.90;;;;;;5077801;28;20691;-60
2022/11/19 03:56:58;;;;;;;5.53;4.00;;;-1.60;99.90;;;;;;5072297;28;20216;-60
2022/11/19 03:59:26;;;;;;;7.47;4.30;;;-1.60;99.90;;;;;;5059106;28;20208;-60
2022/11/19 04:01:58;;;;;;;9.20;3.90;;;-1.70;99.90;;;;;;5074855;28;20817;-60
2022/11/19 04:04:37;;;;;;;5.00;3.07;;;-1.70;99.90;;;;;;5071648;28;20228;-60
2022/11/19 04:07:09;;;;;;;5.93;4.00;;;-1.60;99.90;;;;;;5089356;28;20223;-60
2022/11/19 04:09:36;;;;;;;6.63;4.10;;;-1.60;99.90;;;;;;5059403;28;20241;-60
2022/11/19 04:12:04;;;;;;;6.30;4.53;;;-1.60;99.90;;;;;;5077320;28;20219;-61
2022/11/19 04:14:31;;;;;;;5.97;3.70;;;-1.60;99.90;;;;;;5055194;28;20232;-60
2022/11/19 04:16:59;;;;;;;6.03;3.77;;;-1.60;99.90;;;;;;5075511;28;20203;-60
2022/11/19 04:19:26;;;;;;;6.00;4.23;;;-1.60;99.90;;;;;;5069291;28;20207;-60
2022/11/19 04:21:53;;;;;;;8.17;3.90;;;-1.50;99.90;;;;;;5082690;28;20202;-61
2022/11/19 04:24:20;;;;;;;7.00;4.30;;;-1.60;99.90;;;;;;5074042;28;20210;-61
2022/11/19 04:26:47;;;;;;;6.10;3.93;;;-1.60;99.90;;;;;;5063199;28;21218;-60
2022/11/19 04:29:13;;;;;;;7.23;4.43;;;-1.60;99.90;;;;;;5057029;28;20223;-60
2022/11/19 04:31:40;;;;;;;5.70;3.77;;;-1.50;99.90;;;;;;5082312;28;20199;-60
2022/11/19 04:34:08;;;;;;;6.10;3.80;;;-1.50;99.90;;;;;;5074810;28;20245;-60
2022/11/19 04:36:36;;;;;;;6.33;4.30;;;-1.60;99.90;;;;;;5074807;28;20195;-60
2022/11/19 04:39:03;;;;;;;6.23;4.00;;;-1.60;99.90;;;;;;5089225;28;20203;-60
2022/11/19 04:41:30;;;;;;;6.87;4.67;;;-1.60;99.90;;;;;;5064652;28;20195;-60
2022/11/19 04:43:57;;;;;;;6.03;4.20;;;-1.70;99.90;;;;;;5080326;28;20207;-60
2022/11/19 04:46:24;;;;;;;5.97;4.07;;;-1.70;99.90;;;;;;5061794;28;20208;-60
2022/11/19 04:48:50;;;;;;;5.63;3.90;;;-1.70;99.90;;;;;;5085519;28;20223;-60
2022/11/19 04:51:18;;;;;;;5.27;4.00;;;-1.70;99.90;;;;;;5071291;28;20191;-60
2022/11/19 04:53:45;;;;;;;5.20;4.07;;;-1.70;99.90;;;;;;5079867;28;20199;-60
2022/11/19 04:56:12;;;;;;;6.33;4.37;;;-1.70;99.90;;;;;;5067664;28;20210;-61
2022/11/19 04:58:39;;;;;;;5.57;4.10;;;-1.80;99.90;;;;;;5075278;28;20692;-60
2022/11/19 05:01:06;;;;;;;5.93;4.27;;;-1.50;99.90;;;;;;5058940;28;20232;-60
2022/11/19 05:03:33;;;;;;;8.63;4.40;;;-1.70;99.90;;;;;;5085833;28;20235;-60
2022/11/19 05:06:00;;;;;;;5.90;3.97;;;-1.70;99.90;;;;;;5061704;28;20196;-60
2022/11/19 05:08:28;;;;;;;4.07;3.10;;;-1.70;99.90;;;;;;5075524;28;20231;-60
2022/11/19 05:10:55;;;;;;;5.73;4.13;;;-1.70;99.90;;;;;;5085062;28;20328;-60
2022/11/19 05:13:22;;;;;;;6.17;3.97;;;-1.80;99.90;;;;;;5058941;28;20210;-60
2022/11/19 05:15:49;;;;;;;5.77;4.00;;;-1.80;99.90;;;;;;5048410;28;20216;-60
2022/11/19 05:18:15;;;;;;;5.53;3.80;;;-2.10;99.90;;;;;;5087698;28;20237;-60
2022/11/19 05:20:43;;;;;;;7.00;3.53;;;-2.40;99.90;;;;;;5070758;28;20204;-60
2022/11/19 05:23:11;;;;;;;5.20;3.40;;;-2.50;99.90;;;;;;5082516;28;20200;-60
2022/11/19 05:25:39;;;;;;;6.90;4.13;;;-2.50;99.90;;;;;;5085898;28;20211;-60
2022/11/19 05:28:06;;;;;;;6.13;3.67;;;-2.50;99.90;;;;;;5072504;28;20583;-61
2022/11/19 05:30:33;;;;;;;6.43;4.37;;;-2.50;99.90;;;;;;5076341;28;20204;-60
2022/11/19 05:33:00;;;;;;;6.27;4.40;;;-2.60;99.90;;;;;;5059821;28;20241;-60
2022/11/19 05:35:27;;;;;;;4.73;3.43;;;-2.60;99.90;;;;;;5080137;28;20227;-60
2022/11/19 05:37:54;;;;;;;7.07;3.90;;;-2.70;99.90;;;;;;5078628;28;20663;-60
2022/11/19 05:40:20;;;;;;;6.10;3.90;;;-2.70;99.90;;;;;;5070051;28;20290;-60
2022/11/19 05:42:49;;;;;;;4.70;3.80;;;-2.80;99.90;;;;;;5075344;28;20204;-60
2022/11/19 05:45:16;;;;;;;6.97;4.07;;;-2.80;99.90;;;;;;5071918;28;20676;-60
2022/11/19 05:47:42;;;;;;;5.30;3.77;;;-2.80;99.90;;;;;;5059694;28;20222;-60
2022/11/19 05:50:10;;;;;;;4.97;3.53;;;-2.80;99.90;;;;;;5079755;28;20195;-60
2022/11/19 05:52:37;;;;;;;6.40;3.83;;;-2.80;99.90;;;;;;5057324;28;20211;-60
2022/11/19 05:55:04;;;;;;;6.63;3.70;;;-2.90;99.90;;;;;;5085289;28;20206;-60
2022/11/19 05:57:31;;;;;;;6.70;4.17;;;-2.90;99.90;;;;;;5056018;28;21288;-60
2022/11/19 05:59:59;;;;;;;5.27;3.77;;;-2.90;99.90;;;;;;5075548;28;20199;-60
2022/11/19 06:02:27;;;;;;;5.37;3.60;;;-2.90;99.90;;;;;;5044230;28;20250;-60
2022/11/19 06:04:54;;;;;;;7.07;4.17;;;-2.90;99.90;;;;;;5085466;28;20791;-60
2022/11/19 06:07:21;;;;;;;4.80;3.50;;;-2.90;99.90;;;;;;5066254;28;21416;-61
2022/11/19 06:09:47;;;;;;;6.10;4.07;;;-2.80;99.90;;;;;;5083309;28;20206;-60
2022/11/19 06:12:14;;;;;;;6.00;3.90;;;-2.60;99.90;;;;;;5050749;28;20202;-61
2022/11/19 06:14:41;;;;;;;5.00;3.77;;;-2.50;99.90;;;;;;5068141;28;20244;-60
2022/11/19 06:17:10;;;;;;;7.27;4.07;;;-2.50;99.90;;;;;;5066943;28;20199;-60
2022/11/19 06:19:36;;;;;;;5.87;4.13;;;-2.70;99.90;;;;;;5072127;28;20199;-60
2022/11/19 06:22:04;;;;;;;4.17;3.13;;;-2.70;99.90;;;;;;5080440;28;20203;-60
2022/11/19 06:24:31;;;;;;;6.17;3.70;;;-2.70;99.90;;;;;;5074541;28;21603;-60
2022/11/19 06:26:57;;;;;;;5.90;3.73;;;-2.80;99.90;;;;;;5085070;28;20196;-60
2022/11/19 06:29:24;;;;;;;4.97;3.43;;;-2.70;99.90;;;;;;5061108;28;20223;-60
2022/11/19 06:31:51;;;;;;;6.03;3.47;;;-2.70;99.90;;;;;;5088209;28;20210;-60
2022/11/19 06:34:19;;;;;;;5.07;3.40;;;-2.50;99.90;;;;;;5054174;28;20219;-60
2022/11/19 06:36:46;;;;;;;8.83;5.03;;;-2.50;99.90;;;;;;5090322;28;20200;-60
2022/11/19 06:39:13;;;;;;;8.73;5.07;;;-2.50;99.90;;;;;;5062487;28;21001;-60
2022/11/19 06:41:40;;;;;;;6.63;3.87;;;-2.40;99.90;;;;;;5065975;28;20205;-61
2022/11/19 06:44:06;;;;;;;8.50;3.97;;;-2.50;99.90;;;;;;5069681;28;20203;-60
2022/11/19 06:46:33;;;;;;;5.37;4.10;;;-2.40;99.90;;;;;;5075235;28;20209;-60
2022/11/19 06:49:02;;;;;;;5.80;3.70;;;-2.40;99.90;;;;;;5055058;28;20731;-60
2022/11/19 06:51:30;;;;;;;6.40;3.50;;;-2.30;99.90;;;;;;5066213;28;20664;-60
2022/11/19 06:53:57;;;;;;;8.17;4.20;;;-2.50;99.90;;;;;;5070647;28;21175;-60
2022/11/19 06:56:24;;;;;;;6.07;4.50;;;-2.50;99.90;;;;;;5073814;28;20203;-60
2022/11/19 06:58:50;;;;;;;6.13;3.90;;;-2.40;99.90;;;;;;5064981;28;20208;-60
2022/11/19 07:01:17;;;;;;;8.83;4.90;;;-2.50;99.90;;;;;;5058751;28;20216;-60
2022/11/19 07:03:44;;;;;;;6.50;4.27;;;-2.50;99.90;;;;;;5057425;28;20226;-60
2022/11/19 07:06:11;;;;;;;5.57;3.83;;;-2.40;99.90;;;;;;5080260;28;20203;-60
2022/11/19 07:08:39;;;;;;;4.93;4.10;;;-2.40;99.90;;;;;;5080205;28;20223;-60
2022/11/19 07:13:59;;;;;;;5.40;3.87;;;-2.40;99.90;;;;;;5060212;28;20565;-60
2022/11/19 07:16:27;;;;;;;5.53;4.17;;;-2.40;99.90;;;;;;5072340;28;21262;-60
2022/11/19 07:18:56;;;;;;;7.40;4.03;;;-2.60;99.90;;;;;;5062051;28;20200;-60
2022/11/19 07:21:23;;;;;;;5.17;3.27;;;-2.70;99.90;;;;;;5077550;28;20202;-61
2022/11/19 07:23:51;;;;;;;3.73;3.33;;;-2.80;99.90;;;;;;5085269;28;20195;-60
2022/11/19 07:26:18;;;;;;;5.47;4.00;;;-2.80;99.90;;;;;;5073953;28;20218;-60
2022/11/19 07:28:45;;;;;;;8.87;3.83;;;-2.80;99.90;;;;;;5084748;28;20241;-60
2022/11/19 07:31:12;;;;;;;5.87;3.60;;;-2.80;99.90;;;;;;5056654;28;20233;-60
2022/11/19 07:33:38;;;;;;;6.43;4.00;;;-2.80;99.90;;;;;;5073175;28;20205;-60
2022/11/19 07:36:07;;;;;;;6.67;4.23;;;-2.70;99.90;;;;;;5043422;28;20219;-60
2022/11/19 07:38:34;;;;;;;6.90;4.20;;;-2.40;99.90;;;;;;5079778;28;20663;-60
2022/11/19 07:42:47;;;;;;;6.70;3.97;;;-2.50;99.90;;;;;;5069229;28;20673;-60
2022/11/19 07:43:48;;;;;;;6.53;4.40;;;-2.30;99.90;;;;;;5083541;28;20830;-60
2022/11/19 07:46:15;;;;;;;6.53;3.90;;;-2.40;99.90;;;;;;5061359;28;20207;-60
2022/11/19 07:48:42;;;;;;;13.80;5.40;;;-2.40;99.90;;;;;;5078568;28;20222;-61
2022/11/19 07:51:09;;;;;;;7.43;4.27;;;-2.40;99.90;;;;;;5056817;28;20200;-60
2022/11/19 07:53:36;;;;;;;10.50;4.57;;;-2.30;99.90;;;;;;5071521;28;20216;-60
2022/11/19 07:56:05;;;;;;;6.80;4.57;;;-2.20;99.90;;;;;;5079040;28;20204;-60
2022/11/19 07:58:31;;;;;;;8.77;3.90;;;-2.20;99.90;;;;;;5068653;28;20200;-60
2022/11/19 08:00:58;;;;;;;5.53;3.83;;;-2.10;99.90;;;;;;5065046;28;20230;-60
2022/11/19 08:03:25;;;;;;;6.93;4.43;;;-2.00;99.90;;;;;;5069700;28;21004;-60
2022/11/19 08:05:52;;;;;;;6.97;4.87;;;-2.00;99.90;;;;;;5049363;28;20865;-60
2022/11/19 08:08:18;;;;;;;6.63;4.23;;;-1.80;99.90;;;;;;5040044;28;20231;-60
2022/11/19 08:10:45;;;;;;;6.63;4.23;;;-1.80;99.90;;;;;;5082831;28;21072;-60
2022/11/19 08:13:13;;;;;;;6.47;4.50;;;-1.80;99.90;;;;;;5060868;28;20212;-60
2022/11/19 08:15:40;;;;;;;8.43;5.33;;;-1.80;99.90;;;;;;5081257;28;20202;-60
2022/11/19 08:18:14;;;;;;;8.90;6.80;;;-1.70;99.90;;;;;;5064212;28;20226;-60
2022/11/19 08:20:41;;;;;;;11.10;7.20;;;-1.70;99.90;;;;;;5059537;28;20224;-61
2022/11/19 08:23:08;;;;;;;11.60;7.30;;;-1.70;99.90;;;;;;5076391;28;20314;-61
2022/11/19 08:25:35;;;;;;;14.60;8.43;;;-1.60;99.90;;;;;;5064703;28;20226;-60
2022/11/19 08:28:03;;;;;;;14.27;9.10;;;-1.60;99.90;;;;;;5077368;28;20684;-60
2022/11/19 08:30:33;;;;;;;13.13;8.03;;;-1.60;99.90;;;;;;5080943;28;20194;-60
2022/11/19 08:33:00;;;;;;;11.37;7.30;;;-1.50;99.90;;;;;;5074018;28;20773;-60
2022/11/19 08:35:27;;;;;;;15.83;8.50;;;-1.40;99.90;;;;;;5055933;28;20206;-60
2022/11/19 08:37:54;;;;;;;15.37;8.83;;;-1.40;99.90;;;;;;5065852;28;20195;-60
2022/11/19 08:40:21;;;;;;;12.33;7.47;;;-1.30;99.90;;;;;;5077432;28;20203;-60
2022/11/19 08:42:58;;;;;;;23.20;8.40;;;-1.30;99.90;;;;;;5066732;28;20223;-60
2022/11/19 08:45:26;;;;;;;12.20;7.50;;;-1.20;99.90;;;;;;5088821;28;20314;-60
2022/11/19 08:47:55;;;;;;;11.60;6.97;;;-1.10;99.90;;;;;;5057575;28;20668;-60
2022/11/19 08:50:23;;;;;;;9.77;6.37;;;-1.10;99.90;;;;;;5068634;28;20234;-60
2022/11/19 08:52:56;;;;;;;9.00;6.87;;;-1.00;99.90;;;;;;5042904;28;20223;-60
2022/11/19 08:55:24;;;;;;;12.10;6.50;;;-1.00;99.90;;;;;;5068432;28;20331;-60
2022/11/19 08:57:52;;;;;;;8.80;5.33;;;-1.00;99.90;;;;;;5060718;28;20228;-60
2022/11/19 09:00:20;;;;;;;9.87;5.83;;;-0.90;99.90;;;;;;5074738;28;20322;-60
2022/11/19 09:02:47;;;;;;;9.43;6.37;;;-0.80;99.90;;;;;;5044317;27;20588;-60
2022/11/19 09:05:15;;;;;;;7.20;5.43;;;-0.80;99.90;;;;;;5046515;28;20219;-60
2022/11/19 09:07:42;;;;;;;14.17;5.33;;;-0.80;99.90;;;;;;5028132;28;20227;-60
2022/11/19 09:10:10;;;;;;;7.87;5.40;;;-0.70;99.90;;;;;;5045965;28;20234;-60
2022/11/19 09:12:36;;;;;;;7.00;4.90;;;-0.60;99.90;;;;;;5080553;28;21069;-60
2022/11/19 09:15:04;;;;;;;6.03;4.33;;;-0.50;99.90;;;;;;5065470;28;20215;-60
2022/11/19 09:17:31;;;;;;;6.77;4.60;;;-0.60;99.90;;;;;;5084128;28;20675;-60
2022/11/19 09:19:58;;;;;;;6.67;4.70;;;-0.50;99.90;;;;;;5067053;28;20199;-60
2022/11/19 09:22:26;;;;;;;6.33;4.57;;;-0.50;99.90;;;;;;5034494;27;20207;-60
2022/11/19 09:24:53;;;;;;;14.07;6.47;;;-0.50;99.90;;;;;;5056015;28;20896;-60
2022/11/19 09:27:19;;;;;;;32.13;12.13;;;-0.50;99.90;;;;;;5066694;28;20206;-59
2022/11/19 09:29:46;;;;;;;19.20;8.20;;;-0.50;99.90;;;;;;5065180;28;20234;-60
2022/11/19 09:32:13;;;;;;;18.07;7.10;;;-0.40;99.90;;;;;;5078776;28;20206;-60
2022/11/19 09:34:40;;;;;;;13.20;6.17;;;-0.30;99.90;;;;;;5066863;28;20601;-60
2022/11/19 09:37:08;;;;;;;6.63;5.00;;;-2.00;99.90;;;;;;5047479;28;20212;-61
2022/11/19 09:39:36;;;;;;;8.67;5.40;;;-0.20;99.90;;;;;;5035585;28;20740;-60
2022/11/19 09:42:14;;;;;;;7.17;4.63;;;-0.10;99.90;;;;;;5066417;28;20203;-60
2022/11/19 09:44:57;;;;;;;11.17;5.67;;;-0.10;99.90;;;;;;5058105;28;20320;-60
2022/11/19 09:47:36;;;;;;;7.00;5.30;;;-0.10;99.90;;;;;;5074691;28;20224;-60
2022/11/19 09:50:11;;;;;;;7.17;4.20;;;-0.10;99.90;;;;;;5067546;28;20736;-60
2022/11/19 09:52:45;;;;;;;6.67;4.40;;;-0.10;99.90;;;;;;5039250;28;20214;-60
2022/11/19 09:55:19;;;;;;;7.40;4.33;;;-0.10;99.90;;;;;;5054443;28;20199;-60
2022/11/19 09:57:51;;;;;;;6.90;4.83;;;-0.10;99.90;;;;;;5055020;28;20245;-60
2022/11/19 10:00:21;;;;;;;6.70;4.47;;;-0.10;99.90;;;;;;5069286;28;20345;-60
2022/11/19 10:02:48;;;;;;;8.40;5.10;;;0.00;99.90;;;;;;5074014;28;20219;-60
2022/11/19 10:05:20;;;;;;;8.07;4.80;;;0.10;99.90;;;;;;5067990;28;24389;-61
2022/11/19 10:07:58;;;;;;;6.80;4.57;;;0.10;99.90;;;;;;5060157;28;20725;-60
2022/11/19 10:10:39;;;;;;;6.27;4.30;;;0.00;99.90;;;;;;5060104;22;21173;-60
2022/11/19 10:13:32;;;;;;;5.83;4.07;;;0.10;99.90;;;;;;5026991;28;20222;-60
2022/11/19 10:16:11;;;;;;;6.57;4.17;;;0.20;99.90;;;;;;5043851;28;20198;-60
2022/11/19 10:18:46;;;;;;;7.20;4.40;;;0.20;99.90;;;;;;5051449;28;20218;-60
2022/11/19 10:21:22;;;;;;;8.03;4.77;;;0.40;99.90;;;;;;5029901;28;20212;-60
2022/11/19 10:23:53;;;;;;;5.13;3.63;;;0.40;99.90;;;;;;5040047;28;20225;-60
2022/11/19 10:26:30;;;;;;;6.50;4.10;;;0.50;99.90;;;;;;5012847;28;20228;-60
2022/11/19 10:28:58;;;;;;;7.90;4.37;;;0.50;99.90;;;;;;5059686;28;20224;-60
2022/11/19 10:31:32;;;;;;;5.27;3.93;;;0.50;99.90;;;;;;5043892;28;20749;-61
2022/11/19 10:34:06;;;;;;;8.17;4.23;;;0.60;99.90;;;;;;5047758;28;20226;-61
2022/11/19 10:36:40;;;;;;;6.20;4.33;;;0.60;99.90;;;;;;5053674;28;20234;-60
2022/11/19 10:39:14;;;;;;;6.10;4.17;;;0.70;99.90;;;;;;5031086;28;20224;-61
2022/11/19 10:41:47;;;;;;;7.07;4.03;;;0.80;99.90;;;;;;5010946;28;20231;-60
2022/11/19 10:47:03;;;;;;;5.50;3.73;;;0.90;99.90;;;;;;5036099;28;20866;-60
2022/11/19 10:49:31;;;;;;;6.10;4.07;;;0.90;99.90;;;;;;5045256;28;20233;-60
2022/11/19 10:51:58;;;;;;;6.80;4.40;;;0.90;99.90;;;;;;5052786;28;20216;-60
2022/11/19 10:54:28;;;;;;;5.57;4.00;;;0.80;99.90;;;;;;5041551;28;20230;-60
2022/11/19 10:56:58;;;;;;;6.43;3.73;;;0.90;99.90;;;;;;5004358;28;20229;-61
2022/11/19 10:59:28;;;;;;;6.40;4.07;;;0.90;99.90;;;;;;5038503;28;22343;-60
2022/11/19 11:01:59;;;;;;;7.53;4.00;;;0.90;99.90;;;;;;5035169;28;20223;-61
2022/11/19 11:04:28;;;;;;;6.27;4.17;;;0.80;99.90;;;;;;5036845;28;20992;-60
2022/11/19 11:06:56;;;;;;;6.20;3.90;;;0.90;99.90;;;;;;5059039;28;20192;-60
2022/11/19 11:09:34;;;;;;;6.33;4.87;;;0.90;99.90;;;;;;5042857;28;20239;-60
2022/11/19 11:14:58;;;;;;;7.50;4.50;;;0.80;99.90;;;;;;5045365;28;20266;-60
2022/11/19 11:17:28;;;;;;;13.20;10.57;;;0.80;99.90;;;;;;5027189;28;20211;-60
2022/11/19 11:19:59;;;;;;;6.53;5.17;;;1.00;99.90;;;;;;5042013;28;20232;-60
2022/11/19 11:22:27;;;;;;;8.43;4.27;;;1.00;99.90;;;;;;5052479;28;20223;-60
2022/11/19 11:24:54;;;;;;;6.43;4.00;;;1.00;99.90;;;;;;5049048;28;20224;-60
2022/11/19 11:27:27;;;;;;;5.10;3.90;;;1.00;99.90;;;;;;5029354;28;20221;-61
2022/11/19 11:30:15;;;;;;;7.73;3.90;;;1.10;99.90;;;;;;5046942;28;20236;-60
2022/11/19 11:32:42;;;;;;;5.93;3.60;;;1.10;99.90;;;;;;5035348;28;20220;-60
2022/11/19 11:35:30;;;;;;;5.93;3.97;;;1.20;99.90;;;;;;5063308;28;20235;-60
2022/11/19 11:37:58;;;;;;;5.50;3.57;;;1.20;99.90;;;;;;5057760;28;20218;-60
2022/11/19 11:40:25;;;;;;;6.30;4.10;;;1.20;99.90;;;;;;5046552;28;20221;-61
2022/11/19 11:42:54;;;;;;;6.33;3.73;;;1.30;99.90;;;;;;5019359;28;20240;-60
2022/11/19 11:45:28;;;;;;;7.27;3.80;;;1.30;99.90;;;;;;5046858;28;20213;-60
2022/11/19 11:47:57;;;;;;;5.33;3.47;;;1.30;99.90;;;;;;5044505;28;20954;-60
2022/11/19 11:50:26;;;;;;;6.57;3.77;;;1.30;99.90;;;;;;5031937;28;20243;-60
2022/11/19 11:52:56;;;;;;;6.43;3.90;;;1.30;99.90;;;;;;5060358;28;20322;-60
2022/11/19 11:55:32;;;;;;;6.00;3.67;;;1.30;99.90;;;;;;5025456;28;20228;-60
2022/11/19 11:58:02;;;;;;;5.67;4.17;;;1.30;99.90;;;;;;5006200;28;20228;-61
2022/11/19 12:00:32;;;;;;;6.13;3.73;;;1.70;99.90;;;;;;5040221;28;20713;-61
2022/11/19 12:03:03;;;;;;;4.70;3.50;;;1.40;99.90;;;;;;5034624;28;20202;-61
2022/11/19 12:05:38;;;;;;;5.87;3.50;;;1.40;99.90;;;;;;5033741;28;20212;-60
2022/11/19 12:08:09;;;;;;;4.80;3.57;;;1.50;99.90;;;;;;5057568;28;20211;-60
2022/11/19 12:10:44;;;;;;;5.30;3.43;;;1.60;99.90;;;;;;5049248;28;20239;-60
2022/11/19 12:16:11;;;;;;;7.10;4.10;;;1.70;99.90;;;;;;5033942;27;20728;-59
2022/11/19 12:18:47;;;;;;;4.73;3.23;;;1.70;99.90;;;;;;5028303;28;20212;-60
2022/11/19 12:21:26;;;;;;;4.63;3.60;;;1.70;99.90;;;;;;5001182;28;20240;-60
2022/11/19 12:24:08;;;;;;;3.70;3.30;;;1.80;99.90;;;;;;5034896;28;20574;-60
2022/11/19 12:26:45;;;;;;;4.73;3.50;;;1.90;99.90;;;;;;5030447;28;20218;-60
2022/11/19 12:29:20;;;;;;;4.97;3.43;;;2.00;99.90;;;;;;5002421;28;20215;-60
2022/11/19 12:32:11;;;;;;;4.77;3.10;;;2.00;99.90;;;;;;5021304;28;21824;-60
2022/11/19 12:35:04;;;;;;;5.53;3.73;;;2.10;99.90;;;;;;5021711;28;20225;-60
2022/11/19 12:37:51;;;;;;;5.03;3.13;;;2.20;99.90;;;;;;5009588;28;20883;-60
2022/11/19 12:40:28;;;;;;;5.23;3.60;;;2.20;99.90;;;;;;5042219;28;20215;-60
2022/11/19 12:43:04;;;;;;;6.90;4.40;;;2.30;99.90;;;;;;5030520;28;20996;-60
2022/11/19 12:45:41;;;;;;;6.00;4.23;;;2.30;99.90;;;;;;5000536;28;20211;-60
2022/11/19 12:48:29;;;;;;;6.30;4.13;;;2.30;99.90;;;;;;5019679;28;20217;-60
2022/11/19 12:51:02;;;;;;;6.37;3.80;;;2.40;99.90;;;;;;5005729;28;20255;-61
2022/11/19 12:53:41;;;;;;;5.80;3.87;;;2.50;99.90;;;;;;5029192;28;20224;-61
2022/11/19 12:56:23;;;;;;;6.63;3.93;;;2.50;99.90;;;;;;5035248;28;20933;-60
2022/11/19 12:59:03;;;;;;;7.80;4.30;;;2.50;99.90;;;;;;5030798;28;20603;-60
2022/11/19 13:01:35;;;;;;;6.87;3.80;;;2.50;99.90;;;;;;4993949;28;20220;-61
2022/11/19 13:04:10;;;;;;;4.87;3.13;;;2.50;99.90;;;;;;5010092;28;20581;-60
2022/11/19 13:06:43;;;;;;;5.60;4.53;;;2.50;99.90;;;;;;5003783;28;20283;-62
2022/11/19 13:09:18;;;;;;;8.20;5.60;;;2.60;99.90;;;;;;5029745;28;20581;-62
2022/11/19 13:11:50;;;;;;;6.53;5.03;;;2.60;99.90;;;;;;5025250;28;20258;-62
2022/11/19 13:14:25;;;;;;;5.83;4.47;;;2.50;99.90;;;;;;5036570;28;20286;-62
2022/11/19 13:16:53;;;;;;;6.10;4.70;;;2.60;99.90;;;;;;5004206;28;20917;-62
2022/11/19 13:19:24;;;;;;;6.87;4.40;;;2.60;99.90;;;;;;5022757;28;20231;-62
2022/11/19 13:21:56;;;;;;;6.93;4.37;;;2.60;99.90;;;;;;5036996;28;20216;-61
2022/11/19 13:24:29;;;;;;;8.67;4.17;;;2.70;99.90;;;;;;5010699;28;20213;-62
2022/11/19 13:27:01;;;;;;;10.07;4.70;;;3.60;99.90;;;;;;5023749;28;20327;-62